Terminal Aerodrome Forecast
Issued by NWS

Home | Current Version | Previous Version | Text Only | Print | Product List | Glossary On
Versions: 1 2 3 4 5 6 7 8 9 10 11 12 13 14 15 16 17 18 19 20 21 22
000
FTUS45 KGJT 211741
TAFEGE
TAF
KEGE 211741Z 2118/2218 VRB04KT P6SM VCSH SCT060 OVC090
      TEMPO 2119/2123 VRB10KT -SHRA OVC080
     FM220200 VRB03KT P6SM VCSH SCT070 BKN090
     FM220800 VRB03KT P6SM BKN090=

USA.gov is the U.S. government's official web portal to all federal, state and local government web resources and services.